createdAt,value
2023-03-28T00:02:01.774Z,7.60
2023-03-28T00:07:05.718Z,7.28
2023-03-28T00:12:08.408Z,6.50
2023-03-28T00:17:10.981Z,6.28
2023-03-28T00:22:13.814Z,7.22
2023-03-28T00:27:17.920Z,7.70
2023-03-28T00:32:20.570Z,7.10
2023-03-28T00:37:23.740Z,6.57
2023-03-28T00:42:26.522Z,6.32
2023-03-28T00:47:57.889Z,6.25
2023-03-28T00:58:17.335Z,5.32
2023-03-28T01:03:22.710Z,5.75
2023-03-28T01:08:31.348Z,6.28
2023-03-28T01:13:39.075Z,5.65
2023-03-28T01:18:42.773Z,5.47
2023-03-28T01:23:49.681Z,5.85
2023-03-28T01:29:01.310Z,5.97
2023-03-28T01:34:42.363Z,5.50
2023-03-28T01:40:00.453Z,6.50
2023-03-28T01:45:14.928Z,5.38
2023-03-28T01:50:20.751Z,5.63
2023-03-28T01:55:27.254Z,5.43
2023-03-28T02:00:40.199Z,5.10
2023-03-28T02:05:45.423Z,5.38
2023-03-28T02:10:53.910Z,4.88
2023-03-28T02:16:24.675Z,5.13
2023-03-28T02:21:58.731Z,5.68
2023-03-28T02:27:22.886Z,5.90
2023-03-28T02:32:50.534Z,6.05
2023-03-28T02:38:14.777Z,6.35
2023-03-28T02:43:49.041Z,6.87
2023-03-28T02:49:24.241Z,7.13
2023-03-28T02:54:30.033Z,7.65
2023-03-28T03:00:12.619Z,6.65
2023-03-28T03:05:16.506Z,6.82
2023-03-28T03:10:19.315Z,6.78
2023-03-28T03:15:23.210Z,7.45
2023-03-28T03:20:26.725Z,6.20
2023-03-28T03:25:31.423Z,6.63
2023-03-28T03:30:54.305Z,6.68
2023-03-28T03:36:12.878Z,7.10
2023-03-28T03:41:17.139Z,7.32
2023-03-28T03:46:20.475Z,9.60
2023-03-28T03:51:25.209Z,9.82
2023-03-28T03:56:30.872Z,8.30
2023-03-28T04:01:36.283Z,7.90
2023-03-28T04:06:52.333Z,8.73
2023-03-28T04:11:55.684Z,8.80
2023-03-28T04:16:58.655Z,9.40
2023-03-28T04:22:04.442Z,10.40
2023-03-28T04:27:09.504Z,9.25
2023-03-28T04:32:13.030Z,9.52
2023-03-28T04:37:40.969Z,9.65
2023-03-28T04:42:44.593Z,11.20
2023-03-28T04:48:01.523Z,11.75
2023-03-28T04:53:04.189Z,10.02
2023-03-28T04:58:07.300Z,10.98
2023-03-28T05:08:32.907Z,13.88
2023-03-28T05:13:36.958Z,9.43
2023-03-28T05:19:06.585Z,8.38
2023-03-28T05:24:38.594Z,7.22
2023-03-28T05:29:48.644Z,7.47
2023-03-28T05:34:53.239Z,7.35
2023-03-28T05:39:57.410Z,7.13
2023-03-28T05:45:00.460Z,7.20
2023-03-28T05:50:07.430Z,7.45
2023-03-28T05:55:10.403Z,7.68
2023-03-28T06:00:15.612Z,8.65
2023-03-28T06:05:21.344Z,7.60
2023-03-28T06:10:25.723Z,7.72
2023-03-28T06:15:46.770Z,9.27
2023-03-28T06:20:49.798Z,10.95
2023-03-28T06:25:53.052Z,10.68
2023-03-28T06:30:57.255Z,8.40
2023-03-28T06:36:00.015Z,6.55
2023-03-28T06:41:07.120Z,5.28
2023-03-28T06:46:11.591Z,7.38
2023-03-28T06:51:19.640Z,5.75
2023-03-28T06:56:22.661Z,5.60
2023-03-28T07:01:25.600Z,5.85
2023-03-28T07:06:34.297Z,5.88
2023-03-28T07:11:37.108Z,4.60
2023-03-28T07:16:40.097Z,3.53
2023-03-28T07:21:45.456Z,2.50
2023-03-28T07:26:49.035Z,3.40
2023-03-28T07:31:52.026Z,3.60
2023-03-28T07:36:54.680Z,2.33
2023-03-28T07:42:16.561Z,2.90
2023-03-28T07:47:20.126Z,3.20
2023-03-28T07:52:22.918Z,2.38
2023-03-28T07:57:26.033Z,3.05
2023-03-28T08:02:35.374Z,3.95
2023-03-28T08:07:38.076Z,2.53
2023-03-28T08:12:41.625Z,2.72
2023-03-28T08:17:45.024Z,4.95
2023-03-28T08:22:49.133Z,2.03
2023-03-28T08:28:27.176Z,2.53
2023-03-28T08:33:29.977Z,2.20
2023-03-28T08:38:33.862Z,2.53
2023-03-28T08:43:52.931Z,2.15
2023-03-28T08:48:57.976Z,2.95
2023-03-28T08:54:37.079Z,2.50
2023-03-28T08:59:43.407Z,3.15
2023-03-28T09:04:48.793Z,3.95
2023-03-28T09:10:24.869Z,4.18
2023-03-28T09:16:03.190Z,3.85
2023-03-28T09:21:16.971Z,3.50
2023-03-28T09:26:34.234Z,3.95
2023-03-28T09:31:48.148Z,2.70
2023-03-28T09:36:56.458Z,3.42
2023-03-28T09:42:08.035Z,3.50
2023-03-28T09:47:22.879Z,3.13
2023-03-28T09:52:35.725Z,2.90
2023-03-28T09:58:00.368Z,2.92
2023-03-28T10:03:04.824Z,2.75
2023-03-28T10:08:25.107Z,3.88
2023-03-28T10:13:52.240Z,2.70
2023-03-28T10:18:55.521Z,3.00
2023-03-28T10:24:17.073Z,9.05
2023-03-28T10:29:28.434Z,3.63
2023-03-28T10:34:37.098Z,3.80
2023-03-28T10:40:07.972Z,4.60
2023-03-28T10:45:41.690Z,5.15
2023-03-28T10:50:56.903Z,6.35
2023-03-28T10:56:26.722Z,5.50
2023-03-28T11:01:53.810Z,5.40
2023-03-28T11:07:18.782Z,4.95
2023-03-28T11:12:57.818Z,4.28
2023-03-28T11:18:20.289Z,3.50
2023-03-28T11:23:38.929Z,3.72
2023-03-28T11:29:41.916Z,3.47
2023-03-28T11:34:59.679Z,3.35
2023-03-28T11:40:28.284Z,3.40
2023-03-28T11:45:52.655Z,3.20
2023-03-28T11:51:13.484Z,3.20
2023-03-28T11:56:51.836Z,3.50
2023-03-28T12:02:27.636Z,2.80
2023-03-28T12:07:46.136Z,3.17
2023-03-28T12:13:31.857Z,2.95
2023-03-28T12:18:51.580Z,3.30
2023-03-28T12:24:40.335Z,3.10
2023-03-28T12:29:59.499Z,3.10
2023-03-28T12:35:18.532Z,3.75
2023-03-28T12:41:00.903Z,3.38
2023-03-28T12:46:08.426Z,3.40
2023-03-28T12:51:20.648Z,4.00
2023-03-28T12:56:23.372Z,4.18
2023-03-28T13:01:44.885Z,4.32
2023-03-28T13:07:12.540Z,5.55
2023-03-28T13:17:37.564Z,6.82
2023-03-28T13:22:57.728Z,6.03
2023-03-28T13:28:23.051Z,6.57
2023-03-28T13:33:32.645Z,5.78
2023-03-28T13:39:07.657Z,6.00
2023-03-28T13:44:19.176Z,6.55
2023-03-28T13:49:37.407Z,6.55
2023-03-28T13:54:40.493Z,6.00
2023-03-28T13:59:58.745Z,6.60
2023-03-28T14:05:34.181Z,6.68
2023-03-28T14:10:39.764Z,6.88
2023-03-28T14:15:44.708Z,5.82
2023-03-28T14:20:47.847Z,6.97
2023-03-28T14:25:51.497Z,5.43
2023-03-28T14:30:54.197Z,4.97
2023-03-28T14:36:03.192Z,5.07
2023-03-28T14:41:12.297Z,4.78
2023-03-28T14:46:15.089Z,4.63
2023-03-28T14:51:17.787Z,4.97
2023-03-28T14:56:28.343Z,5.43
2023-03-28T15:01:33.857Z,5.97
2023-03-28T15:06:38.807Z,5.20
2023-03-28T15:11:43.809Z,5.07
2023-03-28T15:16:47.409Z,4.20
2023-03-28T15:21:55.295Z,4.47
2023-03-28T15:27:02.169Z,4.35
2023-03-28T15:32:16.563Z,4.30
2023-03-28T15:37:21.964Z,4.43
2023-03-28T15:42:34.257Z,4.90
2023-03-28T15:47:37.570Z,4.32
2023-03-28T15:52:43.516Z,3.63
2023-03-28T15:57:47.918Z,3.88
2023-03-28T16:02:50.622Z,4.05
2023-03-28T16:14:53.057Z,3.42
2023-03-28T16:20:30.948Z,3.83
2023-03-28T16:25:42.024Z,4.90
2023-03-28T16:30:46.077Z,4.93
2023-03-28T16:35:48.912Z,4.70
2023-03-28T16:40:51.687Z,6.03
2023-03-28T16:45:54.418Z,5.25
2023-03-28T16:50:59.314Z,5.20
2023-03-28T16:56:02.364Z,5.40
2023-03-28T17:01:10.638Z,5.78
2023-03-28T17:06:14.251Z,5.20
2023-03-28T17:11:17.075Z,6.03
2023-03-28T17:16:20.120Z,6.13
2023-03-28T17:21:22.752Z,6.40
2023-03-28T17:26:37.272Z,6.13
2023-03-28T17:31:51.280Z,5.97
2023-03-28T17:36:54.006Z,6.22
2023-03-28T17:41:56.911Z,6.03
2023-03-28T17:47:00.806Z,5.78
2023-03-28T17:52:04.467Z,5.13
2023-03-28T17:57:08.470Z,4.78
2023-03-28T18:02:11.664Z,5.15
2023-03-28T18:07:16.086Z,4.25
2023-03-28T18:12:20.082Z,4.10
2023-03-28T18:17:23.698Z,4.07
2023-03-28T18:22:27.073Z,4.13
2023-03-28T18:27:29.735Z,3.80
2023-03-28T18:32:33.004Z,5.10
2023-03-28T18:37:35.814Z,4.20
2023-03-28T18:42:38.562Z,4.38
2023-03-28T18:47:41.469Z,4.75
2023-03-28T18:52:44.304Z,5.47
2023-03-28T18:57:46.964Z,4.68
2023-03-28T19:02:50.678Z,5.22
2023-03-28T19:07:53.400Z,5.53
2023-03-28T19:12:56.261Z,4.22
2023-03-28T19:18:02.273Z,4.85
2023-03-28T19:23:05.744Z,4.15
2023-03-28T19:28:08.498Z,5.05
2023-03-28T19:33:11.314Z,5.38
2023-03-28T19:38:13.906Z,5.45
2023-03-28T19:43:21.072Z,5.93
2023-03-28T19:48:24.294Z,6.60
2023-03-28T19:53:27.482Z,5.85
2023-03-28T19:58:31.223Z,8.00
2023-03-28T20:03:33.806Z,6.90
2023-03-28T20:08:36.514Z,7.57
2023-03-28T20:13:39.820Z,7.20
2023-03-28T20:18:42.851Z,7.03
2023-03-28T20:23:45.597Z,7.10
2023-03-28T20:28:51.365Z,8.95
2023-03-28T20:33:55.003Z,8.30
2023-03-28T20:38:57.563Z,7.45
2023-03-28T20:44:03.571Z,6.75
2023-03-28T20:49:06.477Z,7.22
2023-03-28T20:54:09.262Z,7.20
2023-03-28T20:59:12.676Z,7.20
2023-03-28T21:04:15.360Z,7.70
2023-03-28T21:09:18.365Z,7.78
2023-03-28T21:14:21.084Z,6.35
2023-03-28T21:19:23.680Z,5.95
2023-03-28T21:24:26.238Z,6.75
2023-03-28T21:29:29.142Z,5.85
2023-03-28T21:34:34.396Z,6.32
2023-03-28T21:39:37.002Z,6.50
2023-03-28T21:44:39.623Z,7.63
2023-03-28T21:49:46.143Z,7.65
2023-03-28T21:54:48.882Z,7.20
2023-03-28T21:59:51.546Z,8.10
2023-03-28T22:04:54.093Z,7.55
2023-03-28T22:10:01.209Z,7.93
2023-03-28T22:15:04.787Z,6.07
2023-03-28T22:20:09.454Z,6.70
2023-03-28T22:25:13.089Z,7.15
2023-03-28T22:30:15.741Z,6.28
2023-03-28T22:35:18.398Z,6.43
2023-03-28T22:40:21.309Z,6.22
2023-03-28T22:45:27.399Z,5.57
2023-03-28T22:50:30.372Z,7.45
2023-03-28T22:55:33.184Z,6.75
2023-03-28T23:00:36.359Z,6.97
2023-03-28T23:05:39.118Z,6.78
2023-03-28T23:10:41.714Z,7.40
2023-03-28T23:15:44.916Z,6.78
2023-03-28T23:20:51.096Z,7.40
2023-03-28T23:25:53.697Z,7.22
2023-03-28T23:30:56.297Z,7.70
2023-03-28T23:35:59.071Z,6.68
2023-03-28T23:41:01.816Z,7.30
2023-03-28T23:46:04.941Z,6.20
2023-03-28T23:51:07.635Z,6.55
2023-03-28T23:56:10.291Z,7.30
